Lakeview Park, Washington
Current Conditions -  °F | °C
As of 3:53 PM on Friday 28 Nov 2014 (Local Time) from KEPH Reporting Station
Broken Clouds Broken Clouds  
Wind Chill: 55°   Ceiling: 11000
Heat Index: 55°   Visibility: 10mi
Dew Point: 43°   Wind: 14mph
Humidity: 64%   Direction: 200°SSW
Pressure: 29.26"   Gusts: 29mph
Location:  47.4314°N, 119.485°W
Report Text: KEPH 282353Z AUTO 20012G25KT 10SM FEW070 SCT090 BKN110 13/06 A2926 RMK AO2 PK WND 21033/2254 SLP910 T01280061 10161 20106 55020
Loading
Personal Weather Stations






























Interactive Weather Map New forecast layout! Learn more

10-Day Weather Forecast

Advertisements
Track Severe Weather on mobile